sensor_id;sensor_type;location;lat;lon;timestamp;P1;durP1;ratioP1;P2;durP2;ratioP2
70216;SDS011;57608;0.000;0.000;2022-08-19T00:00:34;3.70;;;2.30;;
70216;SDS011;57608;0.000;0.000;2022-08-19T00:03:00;3.55;;;2.40;;
70216;SDS011;57608;0.000;0.000;2022-08-19T00:05:26;5.03;;;2.53;;
70216;SDS011;57608;0.000;0.000;2022-08-19T00:07:51;3.58;;;2.42;;
70216;SDS011;57608;0.000;0.000;2022-08-19T00:10:17;3.72;;;2.70;;
70216;SDS011;57608;0.000;0.000;2022-08-19T00:12:46;5.47;;;2.50;;
70216;SDS011;57608;0.000;0.000;2022-08-19T00:15:14;4.47;;;2.42;;
70216;SDS011;57608;0.000;0.000;2022-08-19T00:17:42;6.45;;;2.60;;
70216;SDS011;57608;0.000;0.000;2022-08-19T00:20:09;4.82;;;2.58;;
70216;SDS011;57608;0.000;0.000;2022-08-19T00:22:41;3.97;;;2.75;;
70216;SDS011;57608;0.000;0.000;2022-08-19T00:25:08;4.35;;;2.40;;
70216;SDS011;57608;0.000;0.000;2022-08-19T00:27:34;5.25;;;2.72;;
70216;SDS011;57608;0.000;0.000;2022-08-19T00:29:59;4.32;;;2.70;;
70216;SDS011;57608;0.000;0.000;2022-08-19T00:32:27;4.90;;;2.83;;
70216;SDS011;57608;0.000;0.000;2022-08-19T00:34:52;3.67;;;2.47;;
70216;SDS011;57608;0.000;0.000;2022-08-19T00:37:22;3.95;;;2.63;;
70216;SDS011;57608;0.000;0.000;2022-08-19T00:39:50;3.63;;;2.70;;
70216;SDS011;57608;0.000;0.000;2022-08-19T00:42:20;6.03;;;2.60;;
70216;SDS011;57608;0.000;0.000;2022-08-19T00:44:46;5.78;;;2.75;;
70216;SDS011;57608;0.000;0.000;2022-08-19T00:47:12;5.00;;;2.75;;
70216;SDS011;57608;0.000;0.000;2022-08-19T00:49:59;5.53;;;3.13;;
70216;SDS011;57608;0.000;0.000;2022-08-19T00:52:26;4.85;;;2.70;;
70216;SDS011;57608;0.000;0.000;2022-08-19T00:54:54;5.57;;;2.55;;
70216;SDS011;57608;0.000;0.000;2022-08-19T00:57:24;5.78;;;2.78;;
70216;SDS011;57608;0.000;0.000;2022-08-19T01:00:03;5.63;;;2.85;;
70216;SDS011;57608;0.000;0.000;2022-08-19T01:02:40;4.15;;;2.90;;
70216;SDS011;57608;0.000;0.000;2022-08-19T01:05:09;6.15;;;3.00;;
70216;SDS011;57608;0.000;0.000;2022-08-19T01:07:41;4.57;;;2.80;;
70216;SDS011;57608;0.000;0.000;2022-08-19T01:10:09;6.70;;;2.90;;
70216;SDS011;57608;0.000;0.000;2022-08-19T01:12:37;4.63;;;3.00;;
70216;SDS011;57608;0.000;0.000;2022-08-19T01:15:04;4.15;;;2.97;;
70216;SDS011;57608;0.000;0.000;2022-08-19T01:17:32;4.57;;;2.95;;
70216;SDS011;57608;0.000;0.000;2022-08-19T01:20:00;5.20;;;2.50;;
70216;SDS011;57608;0.000;0.000;2022-08-19T01:22:32;6.07;;;2.60;;
70216;SDS011;57608;0.000;0.000;2022-08-19T01:25:09;4.85;;;2.60;;
70216;SDS011;57608;0.000;0.000;2022-08-19T01:27:45;4.85;;;2.63;;
70216;SDS011;57608;0.000;0.000;2022-08-19T01:30:14;5.55;;;2.72;;
70216;SDS011;57608;0.000;0.000;2022-08-19T01:32:43;3.88;;;2.65;;
70216;SDS011;57608;0.000;0.000;2022-08-19T01:35:09;5.80;;;2.70;;
70216;SDS011;57608;0.000;0.000;2022-08-19T01:37:45;8.35;;;2.92;;
70216;SDS011;57608;0.000;0.000;2022-08-19T01:40:17;5.68;;;2.50;;
70216;SDS011;57608;0.000;0.000;2022-08-19T01:42:46;4.40;;;2.50;;
70216;SDS011;57608;0.000;0.000;2022-08-19T01:45:15;6.07;;;2.55;;
70216;SDS011;57608;0.000;0.000;2022-08-19T01:47:41;5.60;;;2.80;;
70216;SDS011;57608;0.000;0.000;2022-08-19T01:50:07;4.45;;;2.88;;
70216;SDS011;57608;0.000;0.000;2022-08-19T01:52:39;4.95;;;2.70;;
70216;SDS011;57608;0.000;0.000;2022-08-19T01:55:07;5.10;;;2.20;;
70216;SDS011;57608;0.000;0.000;2022-08-19T01:57:35;4.33;;;2.67;;
70216;SDS011;57608;0.000;0.000;2022-08-19T02:00:03;3.47;;;2.50;;
70216;SDS011;57608;0.000;0.000;2022-08-19T02:02:31;6.28;;;2.80;;
70216;SDS011;57608;0.000;0.000;2022-08-19T02:04:57;4.80;;;2.45;;
70216;SDS011;57608;0.000;0.000;2022-08-19T02:07:23;5.10;;;2.70;;
70216;SDS011;57608;0.000;0.000;2022-08-19T02:09:49;5.43;;;2.80;;
70216;SDS011;57608;0.000;0.000;2022-08-19T02:12:14;5.00;;;2.83;;
70216;SDS011;57608;0.000;0.000;2022-08-19T02:14:41;6.05;;;2.80;;
70216;SDS011;57608;0.000;0.000;2022-08-19T02:17:07;4.85;;;2.40;;
70216;SDS011;57608;0.000;0.000;2022-08-19T02:19:33;3.92;;;2.65;;
70216;SDS011;57608;0.000;0.000;2022-08-19T02:21:59;7.43;;;3.17;;
70216;SDS011;57608;0.000;0.000;2022-08-19T02:24:25;5.82;;;2.50;;
70216;SDS011;57608;0.000;0.000;2022-08-19T02:26:52;7.47;;;2.97;;
70216;SDS011;57608;0.000;0.000;2022-08-19T02:29:17;5.18;;;2.95;;
70216;SDS011;57608;0.000;0.000;2022-08-19T02:31:43;7.72;;;2.78;;
70216;SDS011;57608;0.000;0.000;2022-08-19T02:34:08;5.10;;;3.17;;
70216;SDS011;57608;0.000;0.000;2022-08-19T02:36:34;5.25;;;3.10;;
70216;SDS011;57608;0.000;0.000;2022-08-19T02:38:59;5.38;;;2.80;;
70216;SDS011;57608;0.000;0.000;2022-08-19T02:41:26;5.22;;;2.97;;
70216;SDS011;57608;0.000;0.000;2022-08-19T02:43:54;3.87;;;2.67;;
70216;SDS011;57608;0.000;0.000;2022-08-19T02:46:26;4.97;;;2.60;;
70216;SDS011;57608;0.000;0.000;2022-08-19T02:48:55;4.45;;;2.95;;
70216;SDS011;57608;0.000;0.000;2022-08-19T02:51:23;4.57;;;2.65;;
70216;SDS011;57608;0.000;0.000;2022-08-19T02:53:53;5.07;;;2.78;;
70216;SDS011;57608;0.000;0.000;2022-08-19T02:56:19;5.63;;;2.65;;
70216;SDS011;57608;0.000;0.000;2022-08-19T02:58:46;4.93;;;2.78;;
70216;SDS011;57608;0.000;0.000;2022-08-19T03:01:19;4.85;;;2.90;;
70216;SDS011;57608;0.000;0.000;2022-08-19T03:03:49;5.70;;;3.00;;
70216;SDS011;57608;0.000;0.000;2022-08-19T03:06:16;5.20;;;3.00;;
70216;SDS011;57608;0.000;0.000;2022-08-19T03:08:43;4.40;;;3.17;;
70216;SDS011;57608;0.000;0.000;2022-08-19T03:11:14;5.07;;;3.30;;
70216;SDS011;57608;0.000;0.000;2022-08-19T03:13:48;8.00;;;2.97;;
70216;SDS011;57608;0.000;0.000;2022-08-19T03:16:16;5.53;;;2.97;;
70216;SDS011;57608;0.000;0.000;2022-08-19T03:18:43;6.07;;;3.03;;
70216;SDS011;57608;0.000;0.000;2022-08-19T03:21:09;5.32;;;2.97;;
70216;SDS011;57608;0.000;0.000;2022-08-19T03:23:39;5.18;;;2.90;;
70216;SDS011;57608;0.000;0.000;2022-08-19T03:26:07;7.90;;;3.35;;
70216;SDS011;57608;0.000;0.000;2022-08-19T03:28:32;6.32;;;3.20;;
70216;SDS011;57608;0.000;0.000;2022-08-19T03:31:04;8.20;;;3.22;;
70216;SDS011;57608;0.000;0.000;2022-08-19T03:33:32;5.50;;;2.90;;
70216;SDS011;57608;0.000;0.000;2022-08-19T03:36:20;6.57;;;3.50;;
70216;SDS011;57608;0.000;0.000;2022-08-19T03:38:48;6.35;;;3.38;;
70216;SDS011;57608;0.000;0.000;2022-08-19T03:41:19;6.13;;;3.33;;
70216;SDS011;57608;0.000;0.000;2022-08-19T03:43:46;8.02;;;3.25;;
70216;SDS011;57608;0.000;0.000;2022-08-19T03:46:14;7.10;;;3.47;;
70216;SDS011;57608;0.000;0.000;2022-08-19T03:48:42;6.35;;;3.17;;
70216;SDS011;57608;0.000;0.000;2022-08-19T03:51:19;5.70;;;3.60;;
70216;SDS011;57608;0.000;0.000;2022-08-19T03:53:50;7.13;;;3.65;;
70216;SDS011;57608;0.000;0.000;2022-08-19T03:56:17;10.27;;;3.45;;
70216;SDS011;57608;0.000;0.000;2022-08-19T03:58:43;7.05;;;3.60;;
70216;SDS011;57608;0.000;0.000;2022-08-19T04:01:11;7.90;;;3.58;;
70216;SDS011;57608;0.000;0.000;2022-08-19T04:03:39;8.88;;;3.60;;
70216;SDS011;57608;0.000;0.000;2022-08-19T04:06:12;7.45;;;3.80;;
70216;SDS011;57608;0.000;0.000;2022-08-19T04:08:42;10.32;;;4.85;;
70216;SDS011;57608;0.000;0.000;2022-08-19T04:11:10;7.18;;;4.30;;
70216;SDS011;57608;0.000;0.000;2022-08-19T04:13:39;7.38;;;3.55;;
70216;SDS011;57608;0.000;0.000;2022-08-19T04:16:04;7.63;;;4.00;;
70216;SDS011;57608;0.000;0.000;2022-08-19T04:18:32;6.30;;;4.13;;
70216;SDS011;57608;0.000;0.000;2022-08-19T04:20:58;5.63;;;3.88;;
70216;SDS011;57608;0.000;0.000;2022-08-19T04:23:24;6.63;;;4.43;;
70216;SDS011;57608;0.000;0.000;2022-08-19T04:25:50;7.57;;;3.30;;
70216;SDS011;57608;0.000;0.000;2022-08-19T04:28:15;7.25;;;3.80;;
70216;SDS011;57608;0.000;0.000;2022-08-19T04:30:43;7.75;;;4.43;;
70216;SDS011;57608;0.000;0.000;2022-08-19T04:33:10;7.38;;;3.75;;
70216;SDS011;57608;0.000;0.000;2022-08-19T04:35:39;15.93;;;11.02;;
70216;SDS011;57608;0.000;0.000;2022-08-19T04:38:06;5.55;;;4.68;;
70216;SDS011;57608;0.000;0.000;2022-08-19T04:40:33;4.38;;;3.30;;
70216;SDS011;57608;0.000;0.000;2022-08-19T04:43:23;7.80;;;3.47;;
70216;SDS011;57608;0.000;0.000;2022-08-19T04:45:48;3.97;;;2.40;;
70216;SDS011;57608;0.000;0.000;2022-08-19T04:48:16;7.07;;;3.20;;
70216;SDS011;57608;0.000;0.000;2022-08-19T04:50:42;6.05;;;3.50;;
70216;SDS011;57608;0.000;0.000;2022-08-19T04:53:08;8.48;;;3.72;;
70216;SDS011;57608;0.000;0.000;2022-08-19T04:55:34;6.55;;;3.20;;
70216;SDS011;57608;0.000;0.000;2022-08-19T04:58:02;4.60;;;3.25;;
70216;SDS011;57608;0.000;0.000;2022-08-19T05:00:28;7.55;;;3.40;;
70216;SDS011;57608;0.000;0.000;2022-08-19T05:02:54;5.40;;;3.50;;
70216;SDS011;57608;0.000;0.000;2022-08-19T05:05:19;6.35;;;3.20;;
70216;SDS011;57608;0.000;0.000;2022-08-19T05:07:45;5.97;;;2.90;;
70216;SDS011;57608;0.000;0.000;2022-08-19T05:10:11;8.48;;;3.78;;
70216;SDS011;57608;0.000;0.000;2022-08-19T05:12:37;5.55;;;3.70;;
70216;SDS011;57608;0.000;0.000;2022-08-19T05:15:05;5.78;;;3.47;;
70216;SDS011;57608;0.000;0.000;2022-08-19T05:17:33;8.85;;;3.17;;
70216;SDS011;57608;0.000;0.000;2022-08-19T05:19:59;6.50;;;3.38;;
70216;SDS011;57608;0.000;0.000;2022-08-19T05:22:45;6.68;;;3.85;;
70216;SDS011;57608;0.000;0.000;2022-08-19T05:25:13;9.40;;;3.88;;
70216;SDS011;57608;0.000;0.000;2022-08-19T05:27:43;6.55;;;3.80;;
70216;SDS011;57608;0.000;0.000;2022-08-19T05:30:11;8.85;;;4.65;;
70216;SDS011;57608;0.000;0.000;2022-08-19T05:32:37;5.88;;;3.70;;
70216;SDS011;57608;0.000;0.000;2022-08-19T05:35:04;7.95;;;3.30;;
70216;SDS011;57608;0.000;0.000;2022-08-19T05:37:30;6.93;;;4.25;;
70216;SDS011;57608;0.000;0.000;2022-08-19T05:39:55;6.60;;;3.35;;
70216;SDS011;57608;0.000;0.000;2022-08-19T05:42:21;6.28;;;4.28;;
70216;SDS011;57608;0.000;0.000;2022-08-19T05:44:48;6.07;;;3.53;;
70216;SDS011;57608;0.000;0.000;2022-08-19T05:47:14;7.10;;;3.50;;
70216;SDS011;57608;0.000;0.000;2022-08-19T05:49:41;7.25;;;3.53;;
70216;SDS011;57608;0.000;0.000;2022-08-19T05:52:09;4.50;;;3.45;;
70216;SDS011;57608;0.000;0.000;2022-08-19T05:54:38;5.47;;;3.25;;
70216;SDS011;57608;0.000;0.000;2022-08-19T05:57:08;7.72;;;3.60;;
70216;SDS011;57608;0.000;0.000;2022-08-19T05:59:34;7.78;;;3.90;;
70216;SDS011;57608;0.000;0.000;2022-08-19T06:02:01;4.85;;;3.28;;
70216;SDS011;57608;0.000;0.000;2022-08-19T06:04:27;6.53;;;3.47;;
70216;SDS011;57608;0.000;0.000;2022-08-19T06:06:53;6.90;;;3.58;;
70216;SDS011;57608;0.000;0.000;2022-08-19T06:09:20;5.55;;;3.55;;
70216;SDS011;57608;0.000;0.000;2022-08-19T06:11:48;5.88;;;3.33;;
70216;SDS011;57608;0.000;0.000;2022-08-19T06:14:20;6.13;;;3.70;;
70216;SDS011;57608;0.000;0.000;2022-08-19T06:16:48;5.53;;;3.50;;
70216;SDS011;57608;0.000;0.000;2022-08-19T06:19:17;7.45;;;3.70;;
70216;SDS011;57608;0.000;0.000;2022-08-19T06:21:45;7.70;;;3.65;;
70216;SDS011;57608;0.000;0.000;2022-08-19T06:24:14;6.40;;;3.50;;
70216;SDS011;57608;0.000;0.000;2022-08-19T06:26:42;6.30;;;3.20;;
70216;SDS011;57608;0.000;0.000;2022-08-19T06:29:09;5.32;;;3.40;;
70216;SDS011;57608;0.000;0.000;2022-08-19T06:31:40;6.35;;;3.05;;
70216;SDS011;57608;0.000;0.000;2022-08-19T06:34:07;6.13;;;3.53;;
70216;SDS011;57608;0.000;0.000;2022-08-19T06:36:35;5.40;;;3.03;;
70216;SDS011;57608;0.000;0.000;2022-08-19T06:39:04;6.53;;;3.60;;
70216;SDS011;57608;0.000;0.000;2022-08-19T06:41:32;5.88;;;3.58;;
70216;SDS011;57608;0.000;0.000;2022-08-19T06:44:00;9.03;;;3.30;;
70216;SDS011;57608;0.000;0.000;2022-08-19T06:46:26;6.45;;;3.28;;
70216;SDS011;57608;0.000;0.000;2022-08-19T06:48:52;6.13;;;3.47;;
70216;SDS011;57608;0.000;0.000;2022-08-19T06:51:19;6.47;;;3.35;;
70216;SDS011;57608;0.000;0.000;2022-08-19T06:53:49;9.80;;;3.40;;
70216;SDS011;57608;0.000;0.000;2022-08-19T06:56:17;5.90;;;3.20;;
70216;SDS011;57608;0.000;0.000;2022-08-19T06:58:44;6.38;;;3.20;;
70216;SDS011;57608;0.000;0.000;2022-08-19T07:01:09;6.13;;;3.10;;
70216;SDS011;57608;0.000;0.000;2022-08-19T07:03:36;6.63;;;3.25;;
70216;SDS011;57608;0.000;0.000;2022-08-19T07:06:06;7.18;;;3.15;;
70216;SDS011;57608;0.000;0.000;2022-08-19T07:08:35;4.95;;;3.22;;
70216;SDS011;57608;0.000;0.000;2022-08-19T07:11:09;6.88;;;3.25;;
70216;SDS011;57608;0.000;0.000;2022-08-19T07:13:36;4.65;;;2.83;;
70216;SDS011;57608;0.000;0.000;2022-08-19T07:16:06;5.75;;;2.65;;
70216;SDS011;57608;0.000;0.000;2022-08-19T07:21:05;5.28;;;3.00;;
70216;SDS011;57608;0.000;0.000;2022-08-19T07:23:33;5.25;;;3.17;;
70216;SDS011;57608;0.000;0.000;2022-08-19T07:26:05;7.15;;;3.60;;
70216;SDS011;57608;0.000;0.000;2022-08-19T07:28:32;4.72;;;3.00;;
70216;SDS011;57608;0.000;0.000;2022-08-19T07:30:58;5.05;;;2.97;;
70216;SDS011;57608;0.000;0.000;2022-08-19T07:33:23;5.30;;;2.80;;
70216;SDS011;57608;0.000;0.000;2022-08-19T07:35:48;3.78;;;2.78;;
70216;SDS011;57608;0.000;0.000;2022-08-19T07:38:15;6.80;;;3.35;;
70216;SDS011;57608;0.000;0.000;2022-08-19T07:40:41;5.78;;;2.85;;
70216;SDS011;57608;0.000;0.000;2022-08-19T07:43:07;5.35;;;3.20;;
70216;SDS011;57608;0.000;0.000;2022-08-19T07:45:33;7.20;;;3.17;;
70216;SDS011;57608;0.000;0.000;2022-08-19T07:47:58;5.28;;;3.17;;
70216;SDS011;57608;0.000;0.000;2022-08-19T07:50:24;5.85;;;3.33;;
70216;SDS011;57608;0.000;0.000;2022-08-19T07:52:50;6.78;;;3.25;;
70216;SDS011;57608;0.000;0.000;2022-08-19T07:55:18;5.65;;;2.88;;
70216;SDS011;57608;0.000;0.000;2022-08-19T07:57:46;4.85;;;2.70;;
70216;SDS011;57608;0.000;0.000;2022-08-19T08:00:11;4.43;;;2.50;;
70216;SDS011;57608;0.000;0.000;2022-08-19T08:02:37;4.28;;;2.50;;
70216;SDS011;57608;0.000;0.000;2022-08-19T08:05:04;5.72;;;3.00;;
70216;SDS011;57608;0.000;0.000;2022-08-19T08:07:48;3.22;;;1.90;;
70216;SDS011;57608;0.000;0.000;2022-08-19T08:10:32;4.38;;;2.38;;
70216;SDS011;57608;0.000;0.000;2022-08-19T08:12:59;5.47;;;2.60;;
70216;SDS011;57608;0.000;0.000;2022-08-19T08:15:24;4.45;;;2.40;;
70216;SDS011;57608;0.000;0.000;2022-08-19T08:17:50;4.70;;;2.15;;
70216;SDS011;57608;0.000;0.000;2022-08-19T08:20:15;6.07;;;2.30;;
70216;SDS011;57608;0.000;0.000;2022-08-19T08:22:44;4.95;;;2.67;;
70216;SDS011;57608;0.000;0.000;2022-08-19T08:25:30;4.47;;;2.40;;
70216;SDS011;57608;0.000;0.000;2022-08-19T08:27:56;4.85;;;2.30;;
70216;SDS011;57608;0.000;0.000;2022-08-19T08:30:25;5.18;;;2.50;;
70216;SDS011;57608;0.000;0.000;2022-08-19T08:32:52;6.13;;;2.67;;
70216;SDS011;57608;0.000;0.000;2022-08-19T08:35:20;4.50;;;2.60;;
70216;SDS011;57608;0.000;0.000;2022-08-19T08:37:47;4.70;;;2.88;;
70216;SDS011;57608;0.000;0.000;2022-08-19T08:43:31;4.90;;;3.05;;
70216;SDS011;57608;0.000;0.000;2022-08-19T08:48:34;5.28;;;2.90;;
70216;SDS011;57608;0.000;0.000;2022-08-19T08:51:02;4.80;;;2.65;;
70216;SDS011;57608;0.000;0.000;2022-08-19T08:53:32;5.63;;;2.80;;
70216;SDS011;57608;0.000;0.000;2022-08-19T08:56:00;3.90;;;2.33;;
70216;SDS011;57608;0.000;0.000;2022-08-19T08:58:32;4.82;;;2.58;;
70216;SDS011;57608;0.000;0.000;2022-08-19T09:01:07;6.13;;;2.63;;
70216;SDS011;57608;0.000;0.000;2022-08-19T09:03:36;5.97;;;2.60;;
70216;SDS011;57608;0.000;0.000;2022-08-19T09:06:04;3.58;;;2.03;;
70216;SDS011;57608;0.000;0.000;2022-08-19T09:08:40;3.10;;;1.85;;
70216;SDS011;57608;0.000;0.000;2022-08-19T09:17:06;4.40;;;2.20;;
70216;SDS011;57608;0.000;0.000;2022-08-19T09:20:20;4.70;;;2.33;;
70216;SDS011;57608;0.000;0.000;2022-08-19T09:22:38;2.67;;;1.75;;
70216;SDS011;57608;0.000;0.000;2022-08-19T09:25:05;4.35;;;1.95;;
70216;SDS011;57608;0.000;0.000;2022-08-19T09:27:33;2.88;;;1.88;;
70216;SDS011;57608;0.000;0.000;2022-08-19T09:30:03;3.95;;;1.95;;
70216;SDS011;57608;0.000;0.000;2022-08-19T09:32:30;3.40;;;2.00;;
70216;SDS011;57608;0.000;0.000;2022-08-19T09:34:55;5.63;;;2.05;;
70216;SDS011;57608;0.000;0.000;2022-08-19T09:37:23;3.63;;;2.58;;
70216;SDS011;57608;0.000;0.000;2022-08-19T09:39:49;5.15;;;2.40;;
70216;SDS011;57608;0.000;0.000;2022-08-19T09:42:15;4.70;;;2.42;;
70216;SDS011;57608;0.000;0.000;2022-08-19T09:44:41;5.28;;;2.72;;
70216;SDS011;57608;0.000;0.000;2022-08-19T09:47:09;3.17;;;2.13;;
70216;SDS011;57608;0.000;0.000;2022-08-19T09:49:36;4.55;;;2.40;;
70216;SDS011;57608;0.000;0.000;2022-08-19T09:52:02;3.78;;;2.10;;
70216;SDS011;57608;0.000;0.000;2022-08-19T09:54:28;3.58;;;2.33;;
70216;SDS011;57608;0.000;0.000;2022-08-19T09:56:54;3.05;;;2.10;;
70216;SDS011;57608;0.000;0.000;2022-08-19T09:59:23;2.85;;;2.08;;
70216;SDS011;57608;0.000;0.000;2022-08-19T10:01:48;6.57;;;2.40;;
70216;SDS011;57608;0.000;0.000;2022-08-19T10:04:14;2.63;;;1.85;;
70216;SDS011;57608;0.000;0.000;2022-08-19T10:06:40;4.18;;;2.25;;
70216;SDS011;57608;0.000;0.000;2022-08-19T10:09:07;3.22;;;1.80;;
70216;SDS011;57608;0.000;0.000;2022-08-19T10:11:39;3.55;;;1.83;;
70216;SDS011;57608;0.000;0.000;2022-08-19T10:14:06;6.13;;;1.90;;
70216;SDS011;57608;0.000;0.000;2022-08-19T10:16:32;6.53;;;2.40;;
70216;SDS011;57608;0.000;0.000;2022-08-19T10:18:58;5.50;;;2.28;;
70216;SDS011;57608;0.000;0.000;2022-08-19T10:21:28;4.03;;;2.30;;
70216;SDS011;57608;0.000;0.000;2022-08-19T10:23:56;4.72;;;1.92;;
70216;SDS011;57608;0.000;0.000;2022-08-19T10:26:26;4.10;;;2.20;;
70216;SDS011;57608;0.000;0.000;2022-08-19T10:28:54;4.07;;;1.70;;
70216;SDS011;57608;0.000;0.000;2022-08-19T10:31:21;5.57;;;2.80;;
70216;SDS011;57608;0.000;0.000;2022-08-19T10:33:49;3.75;;;1.90;;
70216;SDS011;57608;0.000;0.000;2022-08-19T10:36:19;11.50;;;3.00;;
70216;SDS011;57608;0.000;0.000;2022-08-19T10:38:48;7.05;;;3.00;;
70216;SDS011;57608;0.000;0.000;2022-08-19T10:41:17;9.15;;;2.47;;
70216;SDS011;57608;0.000;0.000;2022-08-19T10:43:45;4.07;;;2.20;;
70216;SDS011;57608;0.000;0.000;2022-08-19T10:46:12;6.03;;;2.40;;
70216;SDS011;57608;0.000;0.000;2022-08-19T10:48:39;8.27;;;2.42;;
70216;SDS011;57608;0.000;0.000;2022-08-19T10:51:06;8.40;;;2.40;;
70216;SDS011;57608;0.000;0.000;2022-08-19T10:53:51;7.55;;;2.40;;
70216;SDS011;57608;0.000;0.000;2022-08-19T10:56:16;6.80;;;2.15;;
70216;SDS011;57608;0.000;0.000;2022-08-19T10:59:01;10.77;;;2.53;;
70216;SDS011;57608;0.000;0.000;2022-08-19T11:01:28;6.90;;;2.70;;
70216;SDS011;57608;0.000;0.000;2022-08-19T11:03:56;8.38;;;2.40;;
70216;SDS011;57608;0.000;0.000;2022-08-19T11:06:22;7.00;;;2.45;;
70216;SDS011;57608;0.000;0.000;2022-08-19T11:08:52;6.55;;;2.17;;
70216;SDS011;57608;0.000;0.000;2022-08-19T11:11:19;7.45;;;2.40;;
70216;SDS011;57608;0.000;0.000;2022-08-19T11:13:48;6.93;;;2.25;;
70216;SDS011;57608;0.000;0.000;2022-08-19T11:16:18;4.63;;;1.90;;
70216;SDS011;57608;0.000;0.000;2022-08-19T11:18:50;7.88;;;2.50;;
70216;SDS011;57608;0.000;0.000;2022-08-19T11:21:22;4.68;;;2.30;;
70216;SDS011;57608;0.000;0.000;2022-08-19T11:23:50;7.30;;;1.92;;
70216;SDS011;57608;0.000;0.000;2022-08-19T11:26:18;5.55;;;2.28;;
70216;SDS011;57608;0.000;0.000;2022-08-19T11:28:44;6.35;;;2.17;;
70216;SDS011;57608;0.000;0.000;2022-08-19T11:31:15;4.05;;;2.05;;
70216;SDS011;57608;0.000;0.000;2022-08-19T11:33:44;5.57;;;2.42;;
70216;SDS011;57608;0.000;0.000;2022-08-19T11:36:11;4.70;;;2.15;;
70216;SDS011;57608;0.000;0.000;2022-08-19T11:38:37;3.30;;;1.80;;
70216;SDS011;57608;0.000;0.000;2022-08-19T11:41:04;8.02;;;2.35;;
70216;SDS011;57608;0.000;0.000;2022-08-19T11:43:32;3.90;;;2.53;;
70216;SDS011;57608;0.000;0.000;2022-08-19T11:45:58;8.43;;;2.50;;
70216;SDS011;57608;0.000;0.000;2022-08-19T11:48:24;6.03;;;1.90;;
70216;SDS011;57608;0.000;0.000;2022-08-19T11:50:50;4.72;;;1.90;;
70216;SDS011;57608;0.000;0.000;2022-08-19T11:53:18;4.90;;;2.00;;
70216;SDS011;57608;0.000;0.000;2022-08-19T11:55:45;6.85;;;2.22;;
70216;SDS011;57608;0.000;0.000;2022-08-19T11:58:12;4.85;;;1.85;;
70216;SDS011;57608;0.000;0.000;2022-08-19T12:00:42;5.28;;;1.95;;
70216;SDS011;57608;0.000;0.000;2022-08-19T12:03:10;5.65;;;2.25;;
70216;SDS011;57608;0.000;0.000;2022-08-19T12:05:37;6.90;;;2.10;;
70216;SDS011;57608;0.000;0.000;2022-08-19T12:08:03;6.70;;;2.60;;
70216;SDS011;57608;0.000;0.000;2022-08-19T12:10:28;6.13;;;2.72;;
70216;SDS011;57608;0.000;0.000;2022-08-19T12:12:54;7.60;;;3.05;;
70216;SDS011;57608;0.000;0.000;2022-08-19T12:15:19;5.40;;;2.55;;
70216;SDS011;57608;0.000;0.000;2022-08-19T12:17:45;7.88;;;2.63;;
70216;SDS011;57608;0.000;0.000;2022-08-19T12:20:11;5.47;;;2.30;;
70216;SDS011;57608;0.000;0.000;2022-08-19T12:22:38;5.05;;;2.80;;
70216;SDS011;57608;0.000;0.000;2022-08-19T12:25:06;6.22;;;2.30;;
70216;SDS011;57608;0.000;0.000;2022-08-19T12:27:33;4.50;;;2.22;;
70216;SDS011;57608;0.000;0.000;2022-08-19T12:30:00;5.65;;;2.33;;
70216;SDS011;57608;0.000;0.000;2022-08-19T12:32:27;7.45;;;2.72;;
70216;SDS011;57608;0.000;0.000;2022-08-19T12:34:54;5.07;;;2.33;;
70216;SDS011;57608;0.000;0.000;2022-08-19T12:37:20;5.53;;;2.72;;
70216;SDS011;57608;0.000;0.000;2022-08-19T12:39:46;3.00;;;2.30;;
70216;SDS011;57608;0.000;0.000;2022-08-19T12:42:12;5.20;;;2.80;;
70216;SDS011;57608;0.000;0.000;2022-08-19T12:44:39;10.00;;;3.17;;
70216;SDS011;57608;0.000;0.000;2022-08-19T12:47:07;9.00;;;3.28;;
70216;SDS011;57608;0.000;0.000;2022-08-19T12:49:34;5.72;;;2.75;;
70216;SDS011;57608;0.000;0.000;2022-08-19T12:52:02;9.00;;;3.50;;
70216;SDS011;57608;0.000;0.000;2022-08-19T12:54:28;8.30;;;3.03;;
70216;SDS011;57608;0.000;0.000;2022-08-19T12:56:55;5.10;;;3.15;;
70216;SDS011;57608;0.000;0.000;2022-08-19T12:59:22;4.72;;;2.30;;
70216;SDS011;57608;0.000;0.000;2022-08-19T13:01:47;4.68;;;2.90;;
70216;SDS011;57608;0.000;0.000;2022-08-19T13:04:13;3.97;;;2.78;;
70216;SDS011;57608;0.000;0.000;2022-08-19T13:06:38;9.60;;;3.53;;
70216;SDS011;57608;0.000;0.000;2022-08-19T13:09:04;3.63;;;2.90;;
70216;SDS011;57608;0.000;0.000;2022-08-19T13:11:30;7.53;;;2.65;;
70216;SDS011;57608;0.000;0.000;2022-08-19T13:13:59;4.07;;;2.22;;
70216;SDS011;57608;0.000;0.000;2022-08-19T13:16:25;4.38;;;2.20;;
70216;SDS011;57608;0.000;0.000;2022-08-19T13:18:53;4.22;;;2.63;;
70216;SDS011;57608;0.000;0.000;2022-08-19T13:21:20;6.22;;;2.60;;
70216;SDS011;57608;0.000;0.000;2022-08-19T13:23:49;5.37;;;2.90;;
70216;SDS011;57608;0.000;0.000;2022-08-19T13:26:16;7.07;;;2.30;;
70216;SDS011;57608;0.000;0.000;2022-08-19T13:28:42;5.47;;;2.85;;
70216;SDS011;57608;0.000;0.000;2022-08-19T13:31:27;4.90;;;3.60;;
70216;SDS011;57608;0.000;0.000;2022-08-19T13:34:13;9.27;;;4.20;;
70216;SDS011;57608;0.000;0.000;2022-08-19T13:36:40;7.35;;;3.72;;
70216;SDS011;57608;0.000;0.000;2022-08-19T13:39:06;6.45;;;3.60;;
70216;SDS011;57608;0.000;0.000;2022-08-19T13:41:36;6.18;;;3.60;;
70216;SDS011;57608;0.000;0.000;2022-08-19T13:44:02;6.15;;;3.90;;
70216;SDS011;57608;0.000;0.000;2022-08-19T13:46:29;7.15;;;3.60;;
70216;SDS011;57608;0.000;0.000;2022-08-19T13:48:55;6.30;;;4.38;;
70216;SDS011;57608;0.000;0.000;2022-08-19T13:51:22;7.85;;;4.40;;
70216;SDS011;57608;0.000;0.000;2022-08-19T13:53:47;5.53;;;4.68;;
70216;SDS011;57608;0.000;0.000;2022-08-19T13:56:14;8.63;;;5.68;;
70216;SDS011;57608;0.000;0.000;2022-08-19T13:58:43;7.50;;;6.18;;
70216;SDS011;57608;0.000;0.000;2022-08-19T14:01:09;10.45;;;7.43;;
70216;SDS011;57608;0.000;0.000;2022-08-19T14:03:35;9.75;;;7.82;;
70216;SDS011;57608;0.000;0.000;2022-08-19T14:06:00;9.73;;;8.50;;
70216;SDS011;57608;0.000;0.000;2022-08-19T14:08:27;9.07;;;7.90;;
70216;SDS011;57608;0.000;0.000;2022-08-19T14:10:53;11.82;;;8.65;;
70216;SDS011;57608;0.000;0.000;2022-08-19T14:13:20;14.32;;;10.00;;
70216;SDS011;57608;0.000;0.000;2022-08-19T14:15:47;11.00;;;8.70;;
70216;SDS011;57608;0.000;0.000;2022-08-19T14:18:15;11.68;;;9.07;;
70216;SDS011;57608;0.000;0.000;2022-08-19T14:20:42;12.07;;;9.20;;
70216;SDS011;57608;0.000;0.000;2022-08-19T14:23:08;9.90;;;8.90;;
70216;SDS011;57608;0.000;0.000;2022-08-19T14:25:34;8.82;;;7.93;;
70216;SDS011;57608;0.000;0.000;2022-08-19T14:27:59;13.32;;;9.50;;
70216;SDS011;57608;0.000;0.000;2022-08-19T14:30:27;10.93;;;8.40;;
70216;SDS011;57608;0.000;0.000;2022-08-19T14:32:57;9.32;;;8.15;;
70216;SDS011;57608;0.000;0.000;2022-08-19T14:35:24;8.35;;;7.30;;
70216;SDS011;57608;0.000;0.000;2022-08-19T14:37:51;8.18;;;6.32;;
70216;SDS011;57608;0.000;0.000;2022-08-19T14:40:20;9.10;;;7.88;;
70216;SDS011;57608;0.000;0.000;2022-08-19T14:42:51;18.63;;;11.90;;
70216;SDS011;57608;0.000;0.000;2022-08-19T14:45:17;12.27;;;10.90;;
70216;SDS011;57608;0.000;0.000;2022-08-19T14:47:42;17.67;;;12.75;;
70216;SDS011;57608;0.000;0.000;2022-08-19T14:50:09;18.88;;;14.35;;
70216;SDS011;57608;0.000;0.000;2022-08-19T14:52:36;14.18;;;12.77;;
70216;SDS011;57608;0.000;0.000;2022-08-19T14:55:02;17.73;;;15.02;;
70216;SDS011;57608;0.000;0.000;2022-08-19T14:57:28;19.67;;;15.85;;
70216;SDS011;57608;0.000;0.000;2022-08-19T14:59:54;21.15;;;18.85;;
70216;SDS011;57608;0.000;0.000;2022-08-19T15:02:21;22.70;;;19.50;;
70216;SDS011;57608;0.000;0.000;2022-08-19T15:04:47;21.33;;;19.02;;
70216;SDS011;57608;0.000;0.000;2022-08-19T15:07:12;17.92;;;14.57;;
70216;SDS011;57608;0.000;0.000;2022-08-19T15:09:37;22.67;;;17.58;;
70216;SDS011;57608;0.000;0.000;2022-08-19T15:12:03;18.88;;;16.77;;
70216;SDS011;57608;0.000;0.000;2022-08-19T15:14:29;14.25;;;12.80;;
70216;SDS011;57608;0.000;0.000;2022-08-19T15:17:00;15.20;;;12.50;;
70216;SDS011;57608;0.000;0.000;2022-08-19T15:19:28;15.75;;;11.40;;